createdAt,value
2023-04-12T00:00:58.509Z,90.48
2023-04-12T00:03:25.743Z,91.20
2023-04-12T00:05:55.298Z,89.80
2023-04-12T00:08:33.995Z,91.31
2023-04-12T00:11:02.405Z,91.23
2023-04-12T00:13:30.320Z,90.81
2023-04-12T00:15:57.302Z,90.19
2023-04-12T00:18:25.891Z,90.31
2023-04-12T00:20:53.366Z,90.48
2023-04-12T00:23:20.516Z,90.46
2023-04-12T00:25:47.503Z,91.46
2023-04-12T00:28:16.242Z,91.77
2023-04-12T00:30:43.143Z,92.19
2023-04-12T00:33:09.971Z,92.66
2023-04-12T00:35:36.866Z,91.89
2023-04-12T00:38:04.360Z,92.05
2023-04-12T00:40:31.299Z,91.88
2023-04-12T00:42:58.027Z,92.52
2023-04-12T00:45:24.765Z,92.30
2023-04-12T00:47:51.915Z,91.82
2023-04-12T00:50:19.312Z,92.09
2023-04-12T00:52:46.358Z,90.84
2023-04-12T00:55:13.264Z,91.36
2023-04-12T00:57:40.817Z,91.67
2023-04-12T01:00:10.732Z,91.40
2023-04-12T01:02:39.590Z,91.44
2023-04-12T01:05:07.785Z,91.08
2023-04-12T01:07:56.176Z,92.99
2023-04-12T01:11:04.044Z,95.52
2023-04-12T01:13:36.645Z,95.04
2023-04-12T01:16:10.971Z,93.61
2023-04-12T01:18:42.050Z,95.25
2023-04-12T01:21:11.283Z,95.13
2023-04-12T01:24:02.278Z,93.43
2023-04-12T01:26:42.247Z,94.13
2023-04-12T01:29:12.007Z,93.89
2023-04-12T01:31:46.046Z,93.24
2023-04-12T01:34:13.430Z,93.15
2023-04-12T01:36:42.424Z,92.75
2023-04-12T01:39:09.749Z,93.86
2023-04-12T01:41:45.868Z,93.49
2023-04-12T01:44:17.040Z,92.75
2023-04-12T01:46:45.125Z,92.59
2023-04-12T01:49:13.187Z,92.96
2023-04-12T01:52:01.537Z,93.54
2023-04-12T01:54:30.430Z,92.71
2023-04-12T01:57:00.295Z,93.17
2023-04-12T02:04:36.170Z,93.39
2023-04-12T02:07:03.469Z,92.60
2023-04-12T02:09:30.765Z,93.75
2023-04-12T02:11:58.093Z,92.83
2023-04-12T02:14:24.828Z,92.28
2023-04-12T02:16:55.047Z,93.49
2023-04-12T02:19:22.634Z,93.19
2023-04-12T02:21:50.210Z,93.14
2023-04-12T02:24:17.044Z,94.40
2023-04-12T02:26:43.791Z,94.53
2023-04-12T02:29:10.665Z,94.38
2023-04-12T02:31:39.234Z,94.48
2023-04-12T02:34:06.766Z,94.42
2023-04-12T02:36:35.431Z,94.53
2023-04-12T02:39:02.306Z,94.45
2023-04-12T02:41:29.111Z,94.74
2023-04-12T02:43:56.004Z,95.53
2023-04-12T02:46:24.645Z,95.17
2023-04-12T02:48:51.962Z,93.35
2023-04-12T02:51:19.023Z,93.74
2023-04-12T02:53:45.922Z,93.13
2023-04-12T02:56:13.305Z,94.14
2023-04-12T02:58:40.769Z,93.25
2023-04-12T03:01:13.336Z,95.11
2023-04-12T03:03:40.979Z,96.75
2023-04-12T03:06:09.773Z,95.85
2023-04-12T03:08:36.483Z,95.11
2023-04-12T03:11:03.325Z,95.15
2023-04-12T03:13:30.235Z,95.42
2023-04-12T03:15:59.302Z,95.06
2023-04-12T03:18:26.190Z,95.61
2023-04-12T03:20:52.918Z,96.37
2023-04-12T03:23:20.743Z,97.67
2023-04-12T03:25:47.599Z,98.01
2023-04-12T03:28:14.407Z,97.63
2023-04-12T03:30:41.253Z,98.70
2023-04-12T03:33:08.344Z,98.44
2023-04-12T03:35:35.250Z,98.10
2023-04-12T03:38:02.285Z,97.43
2023-04-12T03:40:29.038Z,96.88
2023-04-12T03:42:55.841Z,96.49
2023-04-12T03:45:22.545Z,96.68
2023-04-12T03:47:49.792Z,96.23
2023-04-12T03:50:16.626Z,96.54
2023-04-12T03:52:43.351Z,97.67
2023-04-12T03:55:10.361Z,97.41
2023-04-12T03:57:37.631Z,97.24
2023-04-12T04:00:06.029Z,97.93
2023-04-12T04:02:33.807Z,97.78
2023-04-12T04:05:02.682Z,97.64
2023-04-12T04:07:29.573Z,96.58
2023-04-12T04:09:56.478Z,95.68
2023-04-12T04:12:23.150Z,96.05
2023-04-12T04:14:49.985Z,95.73
2023-04-12T04:17:16.860Z,95.48
2023-04-12T04:19:43.588Z,95.11
2023-04-12T04:22:10.563Z,95.84
2023-04-12T04:24:39.420Z,96.13
2023-04-12T04:27:06.818Z,97.68
2023-04-12T04:29:34.337Z,97.27
2023-04-12T04:32:01.757Z,97.81
2023-04-12T04:34:28.617Z,99.02
2023-04-12T04:36:55.405Z,99.43
2023-04-12T04:39:22.210Z,99.26
2023-04-12T04:41:55.196Z,99.74
2023-04-12T04:44:22.266Z,99.23
2023-04-12T04:46:49.649Z,99.80
2023-04-12T04:49:16.661Z,99.76
2023-04-12T04:51:43.423Z,99.63
2023-04-12T04:54:10.439Z,99.94
2023-04-12T04:56:39.975Z,100.00
2023-04-12T04:59:06.767Z,100.00
2023-04-12T05:01:36.843Z,100.00
2023-04-12T05:04:04.416Z,100.00
2023-04-12T05:06:32.111Z,100.00
2023-04-12T05:08:59.470Z,100.00
2023-04-12T05:11:26.691Z,100.00
2023-04-12T05:13:54.201Z,100.00
2023-04-12T05:16:21.069Z,100.00
2023-04-12T05:18:47.778Z,100.00
2023-04-12T05:21:14.741Z,100.00
2023-04-12T05:23:47.325Z,100.00
2023-04-12T05:26:14.356Z,100.00
2023-04-12T05:28:41.784Z,100.00
2023-04-12T05:31:09.578Z,100.00
2023-04-12T05:33:37.820Z,100.00
2023-04-12T05:36:05.287Z,99.80
2023-04-12T05:38:32.106Z,99.43
2023-04-12T05:40:58.956Z,99.62
2023-04-12T05:43:30.037Z,99.18
2023-04-12T05:45:57.224Z,98.89
2023-04-12T05:48:24.108Z,98.91
2023-04-12T05:50:54.788Z,98.70
2023-04-12T05:53:23.545Z,98.41
2023-04-12T05:55:51.879Z,98.71
2023-04-12T05:58:19.162Z,99.11
2023-04-12T06:00:46.046Z,99.73
2023-04-12T06:03:13.221Z,99.69
2023-04-12T06:05:40.196Z,100.00
2023-04-12T06:08:07.220Z,100.00
2023-04-12T06:10:34.205Z,99.50
2023-04-12T06:13:01.097Z,99.97
2023-04-12T06:15:28.488Z,99.31
2023-04-12T06:17:55.335Z,98.66
2023-04-12T06:20:22.116Z,98.52
2023-04-12T06:22:49.016Z,96.35
2023-04-12T06:25:16.916Z,96.02
2023-04-12T06:27:44.173Z,95.02
2023-04-12T06:30:11.376Z,95.12
2023-04-12T06:32:39.217Z,94.94
2023-04-12T06:35:06.878Z,94.56
2023-04-12T06:37:33.720Z,94.48
2023-04-12T06:40:00.689Z,94.20
2023-04-12T06:42:27.890Z,93.33
2023-04-12T06:44:54.715Z,93.39
2023-04-12T06:47:23.422Z,94.29
2023-04-12T06:49:54.791Z,94.27
2023-04-12T06:52:28.585Z,93.60
2023-04-12T06:54:57.048Z,93.15
2023-04-12T06:57:24.407Z,94.31
2023-04-12T06:59:52.165Z,93.11
2023-04-12T07:02:19.398Z,93.62
2023-04-12T07:04:46.284Z,93.34
2023-04-12T07:07:16.393Z,92.17
2023-04-12T07:09:44.095Z,92.40
2023-04-12T07:12:10.942Z,92.57
2023-04-12T07:14:38.097Z,92.61
2023-04-12T07:17:04.776Z,91.83
2023-04-12T07:19:31.935Z,91.46
2023-04-12T07:21:59.010Z,91.34
2023-04-12T07:24:26.184Z,92.24
2023-04-12T07:26:54.942Z,92.32
2023-04-12T07:29:22.441Z,93.66
2023-04-12T07:31:49.880Z,92.14
2023-04-12T07:34:17.044Z,92.34
2023-04-12T07:36:47.024Z,92.36
2023-04-12T07:39:14.638Z,92.09
2023-04-12T07:41:46.466Z,92.05
2023-04-12T07:44:13.276Z,91.63
2023-04-12T07:46:40.962Z,91.72
2023-04-12T07:49:10.683Z,91.94
2023-04-12T07:51:38.110Z,91.19
2023-04-12T07:54:05.332Z,90.33
2023-04-12T07:56:36.293Z,88.95
2023-04-12T07:59:03.111Z,89.14
2023-04-12T08:01:30.992Z,88.98
2023-04-12T08:03:59.066Z,89.16
2023-04-12T08:06:29.418Z,88.23
2023-04-12T08:08:58.305Z,88.59
2023-04-12T08:11:25.049Z,88.66
2023-04-12T08:13:52.012Z,89.36
2023-04-12T08:16:18.917Z,90.18
2023-04-12T08:18:45.972Z,91.11
2023-04-12T08:21:12.989Z,91.26
2023-04-12T08:23:39.988Z,91.88
2023-04-12T08:26:07.001Z,93.11
2023-04-12T08:28:34.726Z,94.11
2023-04-12T08:31:01.903Z,94.75
2023-04-12T08:33:28.881Z,94.43
2023-04-12T08:35:56.299Z,94.79
2023-04-12T08:38:37.313Z,96.10
2023-04-12T08:41:08.606Z,96.92
2023-04-12T08:43:36.298Z,97.29
2023-04-12T08:46:03.386Z,98.99
2023-04-12T08:48:30.455Z,100.00
2023-04-12T08:50:58.581Z,100.00
2023-04-12T08:53:26.050Z,99.47
2023-04-12T08:55:53.322Z,100.00
2023-04-12T08:58:21.105Z,100.00
2023-04-12T09:00:48.418Z,100.00
2023-04-12T09:03:15.717Z,100.00
2023-04-12T09:05:43.512Z,100.00
2023-04-12T09:08:10.470Z,100.00
2023-04-12T09:10:38.611Z,100.00
2023-04-12T09:13:06.658Z,100.00
2023-04-12T09:15:34.649Z,100.00
2023-04-12T09:18:09.542Z,100.00
2023-04-12T09:20:37.884Z,100.00
2023-04-12T09:23:21.913Z,100.00
2023-04-12T09:25:52.534Z,100.00
2023-04-12T09:28:21.886Z,100.00
2023-04-12T09:30:51.985Z,100.00
2023-04-12T09:33:23.894Z,100.00
2023-04-12T09:35:51.659Z,100.00
2023-04-12T09:38:19.120Z,100.00
2023-04-12T09:40:46.338Z,100.00
2023-04-12T09:43:13.426Z,100.00
2023-04-12T09:45:40.637Z,100.00
2023-04-12T09:48:08.217Z,100.00
2023-04-12T09:50:35.155Z,100.00
2023-04-12T09:53:03.606Z,100.00
2023-04-12T09:55:32.697Z,100.00
2023-04-12T09:58:02.793Z,100.00
2023-04-12T10:00:32.300Z,100.00
2023-04-12T10:02:59.328Z,100.00
2023-04-12T10:05:27.600Z,100.00
2023-04-12T10:07:55.537Z,100.00
2023-04-12T10:10:23.678Z,100.00
2023-04-12T10:12:51.201Z,100.00
2023-04-12T10:15:18.733Z,100.00
2023-04-12T10:17:53.154Z,100.00
2023-04-12T10:20:21.113Z,100.00
2023-04-12T10:22:50.367Z,100.00
2023-04-12T10:25:20.176Z,100.00
2023-04-12T10:27:48.081Z,100.00
2023-04-12T10:30:34.115Z,100.00
2023-04-12T10:33:20.173Z,100.00
2023-04-12T10:36:13.812Z,100.00
2023-04-12T10:38:46.657Z,100.00
2023-04-12T10:41:15.892Z,100.00
2023-04-12T10:43:44.942Z,100.00
2023-04-12T10:46:40.122Z,100.00
2023-04-12T10:49:11.844Z,100.00
2023-04-12T10:51:39.035Z,100.00
2023-04-12T10:54:32.887Z,100.00
2023-04-12T10:57:00.169Z,100.00
2023-04-12T10:59:59.745Z,100.00
2023-04-12T11:02:26.761Z,100.00
2023-04-12T11:05:11.894Z,100.00
2023-04-12T11:07:41.474Z,100.00
2023-04-12T11:10:15.963Z,100.00
2023-04-12T11:12:57.847Z,100.00
2023-04-12T11:15:29.016Z,100.00
2023-04-12T11:17:57.857Z,100.00
2023-04-12T11:20:27.891Z,100.00
2023-04-12T11:22:55.221Z,100.00
2023-04-12T11:25:22.277Z,100.00
2023-04-12T11:27:51.216Z,100.00
2023-04-12T11:30:20.522Z,100.00
2023-04-12T11:32:47.964Z,100.00
2023-04-12T11:35:15.952Z,100.00
2023-04-12T11:37:44.320Z,100.00
2023-04-12T11:40:11.772Z,100.00
2023-04-12T11:42:40.602Z,100.00
2023-04-12T11:45:15.886Z,100.00
2023-04-12T11:47:46.195Z,100.00
2023-04-12T11:50:13.729Z,100.00
2023-04-12T11:52:41.716Z,100.00
2023-04-12T11:55:11.769Z,100.00
2023-04-12T11:57:39.914Z,100.00
2023-04-12T12:00:11.036Z,100.00
2023-04-12T12:02:43.601Z,100.00
2023-04-12T12:05:16.461Z,100.00
2023-04-12T12:07:44.008Z,100.00
2023-04-12T12:10:16.401Z,100.00
2023-04-12T12:12:48.437Z,100.00
2023-04-12T12:15:16.647Z,100.00
2023-04-12T12:17:43.434Z,100.00
2023-04-12T12:20:21.062Z,100.00
2023-04-12T12:22:50.188Z,100.00
2023-04-12T12:25:21.091Z,100.00
2023-04-12T12:27:51.646Z,100.00
2023-04-12T12:30:21.263Z,100.00
2023-04-12T12:32:52.929Z,100.00
2023-04-12T12:35:20.714Z,100.00
2023-04-12T12:37:56.083Z,100.00
2023-04-12T12:40:32.825Z,100.00
2023-04-12T12:43:00.735Z,100.00
2023-04-12T12:45:29.364Z,100.00
2023-04-12T12:47:59.552Z,100.00
2023-04-12T12:50:28.091Z,100.00
2023-04-12T12:52:55.677Z,100.00
2023-04-12T12:55:23.670Z,100.00
2023-04-12T12:58:06.851Z,100.00
2023-04-12T13:00:35.086Z,100.00
2023-04-12T13:03:02.429Z,100.00
2023-04-12T13:05:29.983Z,100.00
2023-04-12T13:07:56.718Z,100.00
2023-04-12T13:10:24.360Z,100.00
2023-04-12T13:12:51.750Z,100.00
2023-04-12T13:15:23.001Z,100.00
2023-04-12T13:17:52.632Z,100.00
2023-04-12T13:20:19.662Z,100.00
2023-04-12T13:22:46.918Z,100.00
2023-04-12T13:25:14.386Z,100.00
2023-04-12T13:27:41.805Z,100.00
2023-04-12T13:30:10.693Z,100.00
2023-04-12T13:32:38.553Z,100.00
2023-04-12T13:35:05.806Z,100.00
2023-04-12T13:37:34.006Z,100.00
2023-04-12T13:40:00.819Z,100.00
2023-04-12T13:42:27.794Z,100.00
2023-04-12T13:44:54.698Z,100.00
2023-04-12T13:47:22.417Z,100.00
2023-04-12T13:49:49.524Z,100.00
2023-04-12T13:52:18.870Z,100.00
2023-04-12T13:54:45.887Z,100.00
2023-04-12T13:57:13.171Z,100.00
2023-04-12T13:59:40.132Z,100.00
2023-04-12T14:02:08.051Z,100.00
2023-04-12T14:04:34.987Z,100.00
2023-04-12T14:07:02.713Z,100.00
2023-04-12T14:09:32.282Z,100.00
2023-04-12T14:12:02.069Z,100.00
2023-04-12T14:14:29.970Z,100.00
2023-04-12T14:16:57.966Z,100.00
2023-04-12T14:19:25.211Z,100.00
2023-04-12T14:21:52.576Z,100.00
2023-04-12T14:24:20.677Z,100.00
2023-04-12T14:26:48.842Z,100.00
2023-04-12T14:29:15.923Z,100.00
2023-04-12T14:31:42.745Z,100.00
2023-04-12T14:34:11.267Z,100.00
2023-04-12T14:36:38.550Z,100.00
2023-04-12T14:39:08.445Z,100.00
2023-04-12T14:41:36.978Z,100.00
2023-04-12T14:44:10.830Z,100.00
2023-04-12T14:46:39.480Z,100.00
2023-04-12T14:49:06.583Z,100.00
2023-04-12T14:51:34.204Z,100.00
2023-04-12T14:54:04.001Z,100.00
2023-04-12T14:56:31.700Z,100.00
2023-04-12T14:58:59.910Z,100.00
2023-04-12T15:01:28.578Z,100.00
2023-04-12T15:03:55.711Z,100.00
2023-04-12T15:06:24.236Z,100.00
2023-04-12T15:08:55.251Z,100.00
2023-04-12T15:11:27.518Z,100.00
2023-04-12T15:13:56.332Z,100.00
2023-04-12T15:16:23.712Z,100.00
2023-04-12T15:18:51.889Z,100.00
2023-04-12T15:21:18.932Z,100.00
2023-04-12T15:23:46.530Z,100.00
2023-04-12T15:26:14.764Z,100.00
2023-04-12T15:28:42.559Z,100.00
2023-04-12T15:31:09.871Z,100.00
2023-04-12T15:33:37.588Z,100.00
2023-04-12T15:36:06.492Z,100.00
2023-04-12T15:38:41.155Z,100.00
2023-04-12T15:41:08.225Z,100.00
2023-04-12T15:43:35.258Z,100.00
2023-04-12T15:46:02.873Z,100.00
2023-04-12T15:48:30.241Z,100.00
2023-04-12T15:50:57.275Z,100.00
2023-04-12T15:53:26.337Z,100.00
2023-04-12T15:55:56.691Z,100.00
2023-04-12T15:58:24.576Z,100.00
2023-04-12T16:00:54.630Z,100.00
2023-04-12T16:03:26.940Z,100.00
2023-04-12T16:05:54.911Z,100.00
2023-04-12T16:08:22.748Z,100.00
2023-04-12T16:10:51.089Z,100.00
2023-04-12T16:13:18.953Z,100.00
2023-04-12T16:15:46.772Z,100.00
2023-04-12T16:18:14.160Z,100.00
2023-04-12T16:20:41.663Z,100.00
2023-04-12T16:23:10.245Z,100.00
2023-04-12T16:26:00.524Z,100.00
2023-04-12T16:28:38.129Z,100.00
2023-04-12T16:31:06.861Z,100.00
2023-04-12T16:33:34.352Z,100.00
2023-04-12T16:36:02.186Z,100.00
2023-04-12T16:38:29.378Z,100.00
2023-04-12T16:40:57.166Z,100.00
2023-04-12T16:43:24.391Z,100.00
2023-04-12T16:45:51.366Z,100.00
2023-04-12T16:48:23.084Z,100.00
2023-04-12T16:50:49.853Z,100.00
2023-04-12T16:53:17.314Z,100.00
2023-04-12T16:55:47.760Z,99.59
2023-04-12T16:58:24.142Z,100.00
2023-04-12T17:00:51.668Z,100.00
2023-04-12T17:03:21.524Z,100.00
2023-04-12T17:05:49.283Z,100.00
2023-04-12T17:08:17.499Z,100.00
2023-04-12T17:10:44.437Z,100.00
2023-04-12T17:13:11.447Z,100.00
2023-04-12T17:15:38.763Z,100.00
2023-04-12T17:18:09.947Z,100.00
2023-04-12T17:20:37.254Z,100.00
2023-04-12T17:23:07.230Z,100.00
2023-04-12T17:25:35.284Z,100.00
2023-04-12T17:28:03.836Z,100.00
2023-04-12T17:30:31.305Z,100.00
2023-04-12T17:33:01.494Z,100.00
2023-04-12T17:35:29.557Z,100.00
2023-04-12T17:37:56.719Z,100.00
2023-04-12T17:40:24.450Z,100.00
2023-04-12T17:42:51.722Z,100.00
2023-04-12T17:45:22.087Z,100.00
2023-04-12T17:47:49.154Z,100.00
2023-04-12T17:50:17.085Z,100.00
2023-04-12T17:52:44.510Z,100.00
2023-04-12T17:55:12.783Z,100.00
2023-04-12T17:57:40.409Z,100.00
2023-04-12T18:00:12.542Z,100.00
2023-04-12T18:02:40.614Z,100.00
2023-04-12T18:05:08.252Z,100.00
2023-04-12T18:07:35.773Z,100.00
2023-04-12T18:10:03.500Z,100.00
2023-04-12T18:12:30.464Z,100.00
2023-04-12T18:14:57.877Z,100.00
2023-04-12T18:17:26.630Z,100.00
2023-04-12T18:19:54.652Z,100.00
2023-04-12T18:22:21.752Z,100.00
2023-04-12T18:24:48.750Z,100.00
2023-04-12T18:27:16.292Z,100.00
2023-04-12T18:29:43.253Z,100.00
2023-04-12T18:32:10.392Z,100.00
2023-04-12T18:34:37.306Z,100.00
2023-04-12T18:37:06.252Z,100.00
2023-04-12T18:39:34.797Z,100.00
2023-04-12T18:42:01.845Z,100.00
2023-04-12T18:44:29.822Z,100.00
2023-04-12T18:46:56.975Z,100.00
2023-04-12T18:49:24.428Z,100.00
2023-04-12T18:51:53.449Z,100.00
2023-04-12T18:54:21.366Z,100.00
2023-04-12T18:56:48.268Z,100.00
2023-04-12T18:59:18.205Z,100.00
2023-04-12T19:01:46.364Z,100.00
2023-04-12T19:04:13.225Z,100.00
2023-04-12T19:06:39.982Z,100.00
2023-04-12T19:09:07.086Z,100.00
2023-04-12T19:11:36.774Z,100.00
2023-04-12T19:14:04.367Z,100.00
2023-04-12T19:16:31.390Z,100.00
2023-04-12T19:19:00.379Z,100.00
2023-04-12T19:21:31.323Z,100.00
2023-04-12T19:23:58.686Z,100.00
2023-04-12T19:26:26.303Z,100.00
2023-04-12T19:28:55.816Z,100.00
2023-04-12T19:31:24.024Z,100.00
2023-04-12T19:33:50.805Z,100.00
2023-04-12T19:36:17.823Z,100.00
2023-04-12T19:38:44.892Z,100.00
2023-04-12T19:41:12.394Z,100.00
2023-04-12T19:43:39.396Z,100.00
2023-04-12T19:46:06.132Z,100.00
2023-04-12T19:48:33.044Z,100.00
2023-04-12T19:51:00.026Z,100.00
2023-04-12T19:53:27.222Z,100.00
2023-04-12T19:55:57.525Z,100.00
2023-04-12T19:58:25.289Z,100.00
2023-04-12T20:00:53.497Z,100.00
2023-04-12T20:03:20.319Z,100.00
2023-04-12T20:05:47.906Z,100.00
2023-04-12T20:08:16.350Z,100.00
2023-04-12T20:10:43.408Z,100.00
2023-04-12T20:13:15.430Z,100.00
2023-04-12T20:15:43.210Z,100.00
2023-04-12T20:18:11.644Z,100.00
2023-04-12T20:20:38.444Z,100.00
2023-04-12T20:23:05.493Z,100.00
2023-04-12T20:25:38.087Z,100.00
2023-04-12T20:28:04.958Z,100.00
2023-04-12T20:30:32.037Z,100.00
2023-04-12T20:32:59.155Z,100.00
2023-04-12T20:35:26.054Z,100.00
2023-04-12T20:37:53.264Z,100.00
2023-04-12T20:40:23.434Z,100.00
2023-04-12T20:42:50.524Z,100.00
2023-04-12T20:45:19.145Z,100.00
2023-04-12T20:47:46.350Z,100.00
2023-04-12T20:50:13.185Z,100.00
2023-04-12T20:52:40.046Z,100.00
2023-04-12T20:55:07.904Z,100.00
2023-04-12T20:57:35.413Z,100.00
2023-04-12T21:00:10.679Z,100.00
2023-04-12T21:02:39.366Z,100.00
2023-04-12T21:05:06.846Z,100.00
2023-04-12T21:07:33.962Z,100.00
2023-04-12T21:10:02.435Z,100.00
2023-04-12T21:12:32.419Z,100.00
2023-04-12T21:15:01.059Z,100.00
2023-04-12T21:17:30.444Z,100.00
2023-04-12T21:19:58.818Z,100.00
2023-04-12T21:22:26.033Z,100.00
2023-04-12T21:24:52.964Z,100.00
2023-04-12T21:27:19.828Z,100.00
2023-04-12T21:29:47.532Z,100.00
2023-04-12T21:32:15.070Z,100.00
2023-04-12T21:34:41.840Z,100.00
2023-04-12T21:37:09.402Z,100.00
2023-04-12T21:39:36.414Z,100.00
2023-04-12T21:42:03.591Z,100.00
2023-04-12T21:44:31.553Z,100.00
2023-04-12T21:46:58.244Z,100.00
2023-04-12T21:49:25.057Z,100.00
2023-04-12T21:51:52.674Z,100.00
2023-04-12T21:54:20.645Z,100.00
2023-04-12T21:56:47.805Z,100.00
2023-04-12T21:59:14.556Z,100.00
2023-04-12T22:01:42.187Z,100.00
2023-04-12T22:04:09.443Z,100.00
2023-04-12T22:06:36.217Z,100.00
2023-04-12T22:09:05.119Z,100.00
2023-04-12T22:11:31.890Z,100.00
2023-04-12T22:13:58.692Z,100.00
2023-04-12T22:16:25.543Z,100.00
2023-04-12T22:18:53.050Z,100.00
2023-04-12T22:21:19.869Z,100.00
2023-04-12T22:23:47.055Z,100.00
2023-04-12T22:26:14.039Z,100.00
2023-04-12T22:28:42.879Z,100.00
2023-04-12T22:31:14.723Z,100.00
2023-04-12T22:33:42.221Z,100.00
2023-04-12T22:36:09.890Z,100.00
2023-04-12T22:38:38.289Z,100.00
2023-04-12T22:41:05.352Z,100.00
2023-04-12T22:43:38.430Z,100.00
2023-04-12T22:46:06.190Z,100.00
2023-04-12T22:48:33.017Z,100.00
2023-04-12T22:51:01.284Z,100.00
2023-04-12T22:53:28.758Z,100.00
2023-04-12T22:55:56.664Z,100.00
2023-04-12T22:58:24.166Z,100.00
2023-04-12T23:00:51.231Z,100.00
2023-04-12T23:03:19.033Z,100.00
2023-04-12T23:05:46.701Z,100.00
2023-04-12T23:08:14.536Z,100.00
2023-04-12T23:10:44.729Z,100.00
2023-04-12T23:13:12.075Z,100.00
2023-04-12T23:15:41.869Z,100.00
2023-04-12T23:18:09.027Z,100.00
2023-04-12T23:20:35.936Z,100.00
2023-04-12T23:23:03.104Z,100.00
2023-04-12T23:25:39.681Z,100.00
2023-04-12T23:28:14.566Z,100.00
2023-04-12T23:30:48.468Z,100.00
2023-04-12T23:33:18.655Z,100.00
2023-04-12T23:35:46.978Z,100.00
2023-04-12T23:38:16.356Z,100.00
2023-04-12T23:40:43.827Z,100.00
2023-04-12T23:43:11.173Z,100.00
2023-04-12T23:45:39.010Z,100.00
2023-04-12T23:48:07.345Z,100.00
2023-04-12T23:50:34.355Z,100.00
2023-04-12T23:53:01.173Z,100.00
2023-04-12T23:55:28.002Z,100.00
2023-04-12T23:57:54.818Z,100.00
